Portada
METAR-TAF:

METAR-TAF

Aeroports :

Aeroport de la Ciutat de Londres

Londres, Anglaterra

latitud: 51-30N, longitud: 000-03E, altitud: 5 m

Observació

L'informe es va fer fa 25 minuts, a les 10:20 UTC
Vent 3 kt amb direcció variable
Temperatura 23°C
Humitat 44%
Pressió 1019 hPa
Visibilitat 10 km o més

METAR: EGLC 161020Z AUTO VRB03KT 9999 NCD 23/10 Q1019

Hora: 11:45 (10:45 UTC)

Pronòstic

L'informe es va fer fa 2 hores i 41 minuts, a les 08:04 UTC
Pronòstic vàlid del 16 a les 09 UTC al 16 a les 18 UTC
Vent 7 kt del Oest/Sud-Oest
Visibilitat 10 km o més
sense núvols per sota de 1500 mi sense presència de cumulonimbus.

TAF: EGLC 160804Z 1609/1618 25007KT CAVOK

Observacions i pronòstics meteorològics de més de 4000 aeroports (METAR i TAF).

Les estacions disponibles són els punts grocs i vermells al mapa.

Posi el ratolí al punt desitjat per veure el nom de l'estació.

Feu clic per veure les observacions i els pronòstics meteorològics.

Per canviar el mapa: feu clic els botons verds amb una creu de color negre per apropar; al botó verd amb un guió per allunyar la imatge; o en les fletxes verdes per a mapes adjacents.


METAR-TAF: